sensor_id;sensor_type;location;lat;lon;timestamp;temperature;humidity
17425;DHT22;8830;50.978;5.058;2023-01-20T00:01:40;1.80;99.90
17425;DHT22;8830;50.978;5.058;2023-01-20T00:04:12;1.80;99.90
17425;DHT22;8830;50.978;5.058;2023-01-20T00:06:41;1.80;99.90
17425;DHT22;8830;50.978;5.058;2023-01-20T00:09:13;1.80;99.90
17425;DHT22;8830;50.978;5.058;2023-01-20T00:11:41;3.80;99.90
17425;DHT22;8830;50.978;5.058;2023-01-20T00:14:09;1.80;99.90
17425;DHT22;8830;50.978;5.058;2023-01-20T00:16:37;2.50;99.90
17425;DHT22;8830;50.978;5.058;2023-01-20T00:19:04;2.80;99.90
17425;DHT22;8830;50.978;5.058;2023-01-20T00:21:33;1.90;99.90
17425;DHT22;8830;50.978;5.058;2023-01-20T00:24:00;2.90;99.90
17425;DHT22;8830;50.978;5.058;2023-01-20T00:26:29;1.90;99.90
17425;DHT22;8830;50.978;5.058;2023-01-20T00:28:58;1.90;99.90
17425;DHT22;8830;50.978;5.058;2023-01-20T00:31:26;2.00;99.90
17425;DHT22;8830;50.978;5.058;2023-01-20T00:33:58;1.90;99.90
17425;DHT22;8830;50.978;5.058;2023-01-20T00:36:29;1.90;99.90
17425;DHT22;8830;50.978;5.058;2023-01-20T00:38:59;1.90;99.90
17425;DHT22;8830;50.978;5.058;2023-01-20T00:41:26;1.90;99.90
17425;DHT22;8830;50.978;5.058;2023-01-20T00:43:56;1.90;99.90
17425;DHT22;8830;50.978;5.058;2023-01-20T00:46:23;1.90;99.90
17425;DHT22;8830;50.978;5.058;2023-01-20T00:48:50;1.90;99.90
17425;DHT22;8830;50.978;5.058;2023-01-20T00:51:17;3.60;99.90
17425;DHT22;8830;50.978;5.058;2023-01-20T00:53:44;2.50;99.90
17425;DHT22;8830;50.978;5.058;2023-01-20T00:56:13;2.00;99.90
17425;DHT22;8830;50.978;5.058;2023-01-20T00:58:41;2.00;99.90
17425;DHT22;8830;50.978;5.058;2023-01-20T01:01:10;3.80;99.90
17425;DHT22;8830;50.978;5.058;2023-01-20T01:03:37;2.00;99.90
17425;DHT22;8830;50.978;5.058;2023-01-20T01:06:07;2.30;99.90
17425;DHT22;8830;50.978;5.058;2023-01-20T01:08:36;2.00;99.90
17425;DHT22;8830;50.978;5.058;2023-01-20T01:11:03;2.00;99.90
17425;DHT22;8830;50.978;5.058;2023-01-20T01:13:34;2.00;99.90
17425;DHT22;8830;50.978;5.058;2023-01-20T01:16:01;2.10;99.90
17425;DHT22;8830;50.978;5.058;2023-01-20T01:18:28;2.20;99.90
17425;DHT22;8830;50.978;5.058;2023-01-20T01:20:56;2.20;99.90
17425;DHT22;8830;50.978;5.058;2023-01-20T01:23:23;2.50;99.90
17425;DHT22;8830;50.978;5.058;2023-01-20T01:25:50;2.30;99.90
17425;DHT22;8830;50.978;5.058;2023-01-20T01:28:17;2.20;99.90
17425;DHT22;8830;50.978;5.058;2023-01-20T01:30:46;2.80;99.90
17425;DHT22;8830;50.978;5.058;2023-01-20T01:33:15;2.20;99.90
17425;DHT22;8830;50.978;5.058;2023-01-20T01:35:42;2.20;99.90
17425;DHT22;8830;50.978;5.058;2023-01-20T01:38:09;2.20;99.90
17425;DHT22;8830;50.978;5.058;2023-01-20T01:40:36;2.10;99.90
17425;DHT22;8830;50.978;5.058;2023-01-20T01:43:10;2.20;99.90
17425;DHT22;8830;50.978;5.058;2023-01-20T01:45:45;2.20;99.90
17425;DHT22;8830;50.978;5.058;2023-01-20T01:48:13;2.10;99.90
17425;DHT22;8830;50.978;5.058;2023-01-20T01:50:45;2.20;99.90
17425;DHT22;8830;50.978;5.058;2023-01-20T01:53:14;2.30;99.90
17425;DHT22;8830;50.978;5.058;2023-01-20T01:55:44;2.40;99.90
17425;DHT22;8830;50.978;5.058;2023-01-20T01:58:14;2.30;99.90
17425;DHT22;8830;50.978;5.058;2023-01-20T02:00:42;4.50;99.90
17425;DHT22;8830;50.978;5.058;2023-01-20T02:03:12;2.40;99.90
17425;DHT22;8830;50.978;5.058;2023-01-20T02:05:40;2.40;99.90
17425;DHT22;8830;50.978;5.058;2023-01-20T02:08:08;2.50;99.90
17425;DHT22;8830;50.978;5.058;2023-01-20T02:10:35;2.50;99.90
17425;DHT22;8830;50.978;5.058;2023-01-20T02:13:04;2.50;99.90
17425;DHT22;8830;50.978;5.058;2023-01-20T02:15:35;2.60;99.90
17425;DHT22;8830;50.978;5.058;2023-01-20T02:18:24;2.60;99.90
17425;DHT22;8830;50.978;5.058;2023-01-20T02:21:13;2.50;99.90
17425;DHT22;8830;50.978;5.058;2023-01-20T02:24:11;2.50;99.90
17425;DHT22;8830;50.978;5.058;2023-01-20T02:26:52;2.40;99.90
17425;DHT22;8830;50.978;5.058;2023-01-20T02:29:44;2.40;99.90
17425;DHT22;8830;50.978;5.058;2023-01-20T02:32:26;2.40;99.90
17425;DHT22;8830;50.978;5.058;2023-01-20T02:35:03;2.30;99.90
17425;DHT22;8830;50.978;5.058;2023-01-20T02:37:39;2.40;99.90
17425;DHT22;8830;50.978;5.058;2023-01-20T02:40:17;2.40;99.90
17425;DHT22;8830;50.978;5.058;2023-01-20T02:42:50;2.40;99.90
17425;DHT22;8830;50.978;5.058;2023-01-20T02:45:23;2.40;99.90
17425;DHT22;8830;50.978;5.058;2023-01-20T02:47:56;2.40;99.90
17425;DHT22;8830;50.978;5.058;2023-01-20T02:50:30;2.40;99.90
17425;DHT22;8830;50.978;5.058;2023-01-20T02:53:02;2.40;99.90
17425;DHT22;8830;50.978;5.058;2023-01-20T02:55:35;2.40;99.90
17425;DHT22;8830;50.978;5.058;2023-01-20T02:58:06;2.60;99.90
17425;DHT22;8830;50.978;5.058;2023-01-20T03:00:38;2.40;99.90
17425;DHT22;8830;50.978;5.058;2023-01-20T03:03:10;2.40;99.90
17425;DHT22;8830;50.978;5.058;2023-01-20T03:05:41;2.40;99.90
17425;DHT22;8830;50.978;5.058;2023-01-20T03:08:13;2.40;99.90
17425;DHT22;8830;50.978;5.058;2023-01-20T03:10:42;2.60;99.90
17425;DHT22;8830;50.978;5.058;2023-01-20T03:13:25;2.40;99.90
17425;DHT22;8830;50.978;5.058;2023-01-20T03:15:57;2.40;99.90
17425;DHT22;8830;50.978;5.058;2023-01-20T03:18:28;2.40;99.90
17425;DHT22;8830;50.978;5.058;2023-01-20T03:20:56;2.50;99.90
17425;DHT22;8830;50.978;5.058;2023-01-20T03:23:27;2.50;99.90
17425;DHT22;8830;50.978;5.058;2023-01-20T03:25:55;2.40;99.90
17425;DHT22;8830;50.978;5.058;2023-01-20T03:28:22;2.30;99.90
17425;DHT22;8830;50.978;5.058;2023-01-20T03:30:49;2.20;99.90
17425;DHT22;8830;50.978;5.058;2023-01-20T03:33:17;3.10;99.90
17425;DHT22;8830;50.978;5.058;2023-01-20T03:35:47;2.20;99.90
17425;DHT22;8830;50.978;5.058;2023-01-20T03:38:14;2.20;99.90
17425;DHT22;8830;50.978;5.058;2023-01-20T03:40:47;2.20;99.90
17425;DHT22;8830;50.978;5.058;2023-01-20T03:43:21;2.20;99.90
17425;DHT22;8830;50.978;5.058;2023-01-20T03:45:54;2.30;99.90
17425;DHT22;8830;50.978;5.058;2023-01-20T03:48:30;2.30;99.90
17425;DHT22;8830;50.978;5.058;2023-01-20T03:51:07;2.30;99.90
17425;DHT22;8830;50.978;5.058;2023-01-20T03:53:39;2.30;99.90
17425;DHT22;8830;50.978;5.058;2023-01-20T03:56:15;2.30;99.90
17425;DHT22;8830;50.978;5.058;2023-01-20T03:58:47;2.30;99.90
17425;DHT22;8830;50.978;5.058;2023-01-20T04:01:17;2.60;99.90
17425;DHT22;8830;50.978;5.058;2023-01-20T04:03:46;2.30;99.90
17425;DHT22;8830;50.978;5.058;2023-01-20T04:06:18;2.30;99.90
17425;DHT22;8830;50.978;5.058;2023-01-20T04:08:50;2.20;99.90
17425;DHT22;8830;50.978;5.058;2023-01-20T04:11:19;2.20;99.90
17425;DHT22;8830;50.978;5.058;2023-01-20T04:13:46;2.60;99.90
17425;DHT22;8830;50.978;5.058;2023-01-20T04:16:15;2.20;99.90
17425;DHT22;8830;50.978;5.058;2023-01-20T04:18:46;2.20;99.90
17425;DHT22;8830;50.978;5.058;2023-01-20T04:21:18;2.20;99.90
17425;DHT22;8830;50.978;5.058;2023-01-20T04:23:50;2.30;99.90
17425;DHT22;8830;50.978;5.058;2023-01-20T04:26:18;2.30;99.90
17425;DHT22;8830;50.978;5.058;2023-01-20T04:28:45;2.30;99.90
17425;DHT22;8830;50.978;5.058;2023-01-20T04:31:11;2.30;99.90
17425;DHT22;8830;50.978;5.058;2023-01-20T04:33:40;3.40;99.90
17425;DHT22;8830;50.978;5.058;2023-01-20T04:36:07;4.20;99.90
17425;DHT22;8830;50.978;5.058;2023-01-20T04:38:35;2.30;99.90
17425;DHT22;8830;50.978;5.058;2023-01-20T04:41:02;2.70;99.90
17425;DHT22;8830;50.978;5.058;2023-01-20T04:43:29;2.30;99.90
17425;DHT22;8830;50.978;5.058;2023-01-20T04:45:56;2.30;99.90
17425;DHT22;8830;50.978;5.058;2023-01-20T04:48:23;2.80;99.90
17425;DHT22;8830;50.978;5.058;2023-01-20T04:50:50;2.30;99.90
17425;DHT22;8830;50.978;5.058;2023-01-20T04:53:17;2.30;99.90
17425;DHT22;8830;50.978;5.058;2023-01-20T04:55:46;2.30;99.90
17425;DHT22;8830;50.978;5.058;2023-01-20T04:58:13;2.30;99.90
17425;DHT22;8830;50.978;5.058;2023-01-20T05:00:41;2.30;99.90
17425;DHT22;8830;50.978;5.058;2023-01-20T05:03:07;2.30;99.90
17425;DHT22;8830;50.978;5.058;2023-01-20T05:05:35;2.30;99.90
17425;DHT22;8830;50.978;5.058;2023-01-20T05:08:02;2.40;99.90
17425;DHT22;8830;50.978;5.058;2023-01-20T05:10:30;2.30;99.90
17425;DHT22;8830;50.978;5.058;2023-01-20T05:12:59;2.20;99.90
17425;DHT22;8830;50.978;5.058;2023-01-20T05:15:27;2.10;99.90
17425;DHT22;8830;50.978;5.058;2023-01-20T05:17:54;2.00;99.90
17425;DHT22;8830;50.978;5.058;2023-01-20T05:20:21;1.90;99.90
17425;DHT22;8830;50.978;5.058;2023-01-20T05:22:48;1.90;99.90
17425;DHT22;8830;50.978;5.058;2023-01-20T05:25:15;2.00;99.90
17425;DHT22;8830;50.978;5.058;2023-01-20T05:27:42;2.10;99.90
17425;DHT22;8830;50.978;5.058;2023-01-20T05:30:12;2.10;99.90
17425;DHT22;8830;50.978;5.058;2023-01-20T05:32:39;2.10;99.90
17425;DHT22;8830;50.978;5.058;2023-01-20T05:35:07;2.10;99.90
17425;DHT22;8830;50.978;5.058;2023-01-20T05:37:34;2.00;99.90
17425;DHT22;8830;50.978;5.058;2023-01-20T05:40:01;2.00;99.90
17425;DHT22;8830;50.978;5.058;2023-01-20T05:42:28;2.10;99.90
17425;DHT22;8830;50.978;5.058;2023-01-20T05:44:58;2.10;99.90
17425;DHT22;8830;50.978;5.058;2023-01-20T05:47:28;2.10;99.90
17425;DHT22;8830;50.978;5.058;2023-01-20T05:49:55;2.10;99.90
17425;DHT22;8830;50.978;5.058;2023-01-20T05:52:22;2.10;99.90
17425;DHT22;8830;50.978;5.058;2023-01-20T05:54:49;2.30;99.90
17425;DHT22;8830;50.978;5.058;2023-01-20T05:57:16;1.90;99.90
17425;DHT22;8830;50.978;5.058;2023-01-20T05:59:43;2.20;99.90
17425;DHT22;8830;50.978;5.058;2023-01-20T06:02:12;1.90;99.90
17425;DHT22;8830;50.978;5.058;2023-01-20T06:04:44;1.90;99.90
17425;DHT22;8830;50.978;5.058;2023-01-20T06:07:11;4.80;99.90
17425;DHT22;8830;50.978;5.058;2023-01-20T06:09:38;1.90;99.90
17425;DHT22;8830;50.978;5.058;2023-01-20T06:12:05;1.90;99.90
17425;DHT22;8830;50.978;5.058;2023-01-20T06:14:31;2.00;99.90
17425;DHT22;8830;50.978;5.058;2023-01-20T06:16:59;2.00;99.90
17425;DHT22;8830;50.978;5.058;2023-01-20T06:19:27;2.00;99.90
17425;DHT22;8830;50.978;5.058;2023-01-20T06:21:55;2.00;99.90
17425;DHT22;8830;50.978;5.058;2023-01-20T06:24:24;2.00;99.90
17425;DHT22;8830;50.978;5.058;2023-01-20T06:26:51;1.90;99.90
17425;DHT22;8830;50.978;5.058;2023-01-20T06:29:18;1.90;99.90
17425;DHT22;8830;50.978;5.058;2023-01-20T06:31:45;1.90;99.90
17425;DHT22;8830;50.978;5.058;2023-01-20T06:34:14;1.90;99.90
17425;DHT22;8830;50.978;5.058;2023-01-20T06:36:42;3.30;99.90
17425;DHT22;8830;50.978;5.058;2023-01-20T06:39:11;2.00;99.90
17425;DHT22;8830;50.978;5.058;2023-01-20T06:41:39;2.00;99.90
17425;DHT22;8830;50.978;5.058;2023-01-20T06:44:06;2.00;99.90
17425;DHT22;8830;50.978;5.058;2023-01-20T06:46:32;2.20;99.90
17425;DHT22;8830;50.978;5.058;2023-01-20T06:49:02;1.90;99.90
17425;DHT22;8830;50.978;5.058;2023-01-20T06:51:29;2.10;99.90
17425;DHT22;8830;50.978;5.058;2023-01-20T06:54:02;2.10;99.90
17425;DHT22;8830;50.978;5.058;2023-01-20T06:56:30;2.10;99.90
17425;DHT22;8830;50.978;5.058;2023-01-20T06:58:57;2.10;99.90
17425;DHT22;8830;50.978;5.058;2023-01-20T07:01:26;2.10;99.90
17425;DHT22;8830;50.978;5.058;2023-01-20T07:03:53;2.10;99.90
17425;DHT22;8830;50.978;5.058;2023-01-20T07:06:26;2.10;99.90
17425;DHT22;8830;50.978;5.058;2023-01-20T07:08:53;2.10;99.90
17425;DHT22;8830;50.978;5.058;2023-01-20T07:11:23;2.10;99.90
17425;DHT22;8830;50.978;5.058;2023-01-20T07:13:52;2.10;99.90
17425;DHT22;8830;50.978;5.058;2023-01-20T07:16:19;2.20;99.90
17425;DHT22;8830;50.978;5.058;2023-01-20T07:18:48;2.20;99.90
17425;DHT22;8830;50.978;5.058;2023-01-20T07:21:16;3.00;99.90
17425;DHT22;8830;50.978;5.058;2023-01-20T07:23:43;2.20;99.90
17425;DHT22;8830;50.978;5.058;2023-01-20T07:26:12;2.80;99.90
17425;DHT22;8830;50.978;5.058;2023-01-20T07:28:40;2.10;99.90
17425;DHT22;8830;50.978;5.058;2023-01-20T07:31:11;2.40;99.90
17425;DHT22;8830;50.978;5.058;2023-01-20T07:33:38;2.10;99.90
17425;DHT22;8830;50.978;5.058;2023-01-20T07:36:05;2.10;99.90
17425;DHT22;8830;50.978;5.058;2023-01-20T07:38:33;2.10;99.90
17425;DHT22;8830;50.978;5.058;2023-01-20T07:41:02;2.10;99.90
17425;DHT22;8830;50.978;5.058;2023-01-20T07:43:29;2.10;99.90
17425;DHT22;8830;50.978;5.058;2023-01-20T07:45:59;2.10;99.90
17425;DHT22;8830;50.978;5.058;2023-01-20T07:48:29;3.40;99.90
17425;DHT22;8830;50.978;5.058;2023-01-20T07:50:57;2.20;99.90
17425;DHT22;8830;50.978;5.058;2023-01-20T07:53:27;2.20;99.90
17425;DHT22;8830;50.978;5.058;2023-01-20T07:55:54;2.30;99.90
17425;DHT22;8830;50.978;5.058;2023-01-20T07:58:21;2.30;99.90
17425;DHT22;8830;50.978;5.058;2023-01-20T08:00:49;2.20;99.90
17425;DHT22;8830;50.978;5.058;2023-01-20T08:03:17;2.20;99.90
17425;DHT22;8830;50.978;5.058;2023-01-20T08:05:45;2.10;99.90
17425;DHT22;8830;50.978;5.058;2023-01-20T08:08:13;2.00;99.90
17425;DHT22;8830;50.978;5.058;2023-01-20T08:10:40;2.00;99.90
17425;DHT22;8830;50.978;5.058;2023-01-20T08:13:08;1.90;99.90
17425;DHT22;8830;50.978;5.058;2023-01-20T08:15:35;2.00;99.90
17425;DHT22;8830;50.978;5.058;2023-01-20T08:18:03;2.10;99.90
17425;DHT22;8830;50.978;5.058;2023-01-20T08:20:29;2.10;99.90
17425;DHT22;8830;50.978;5.058;2023-01-20T08:23:00;2.10;99.90
17425;DHT22;8830;50.978;5.058;2023-01-20T08:25:27;2.10;99.90
17425;DHT22;8830;50.978;5.058;2023-01-20T08:27:54;2.20;99.90
17425;DHT22;8830;50.978;5.058;2023-01-20T08:30:21;2.50;99.90
17425;DHT22;8830;50.978;5.058;2023-01-20T08:32:48;2.10;99.90
17425;DHT22;8830;50.978;5.058;2023-01-20T08:35:15;2.00;99.90
17425;DHT22;8830;50.978;5.058;2023-01-20T08:37:43;2.00;99.90
17425;DHT22;8830;50.978;5.058;2023-01-20T08:40:11;2.10;99.90
17425;DHT22;8830;50.978;5.058;2023-01-20T08:42:39;2.10;99.90
17425;DHT22;8830;50.978;5.058;2023-01-20T08:45:07;2.10;99.90
17425;DHT22;8830;50.978;5.058;2023-01-20T08:47:35;2.10;99.90
17425;DHT22;8830;50.978;5.058;2023-01-20T08:50:04;2.10;99.90
17425;DHT22;8830;50.978;5.058;2023-01-20T08:52:32;2.20;99.90
17425;DHT22;8830;50.978;5.058;2023-01-20T08:55:00;2.20;99.90
17425;DHT22;8830;50.978;5.058;2023-01-20T08:57:28;2.30;99.90
17425;DHT22;8830;50.978;5.058;2023-01-20T08:59:56;2.40;99.90
17425;DHT22;8830;50.978;5.058;2023-01-20T09:02:23;3.70;99.90
17425;DHT22;8830;50.978;5.058;2023-01-20T09:04:50;2.30;99.90
17425;DHT22;8830;50.978;5.058;2023-01-20T09:07:19;2.40;99.90
17425;DHT22;8830;50.978;5.058;2023-01-20T09:09:48;2.40;99.90
17425;DHT22;8830;50.978;5.058;2023-01-20T09:12:15;2.30;99.90
17425;DHT22;8830;50.978;5.058;2023-01-20T09:14:45;2.40;99.90
17425;DHT22;8830;50.978;5.058;2023-01-20T09:17:12;2.40;99.90
17425;DHT22;8830;50.978;5.058;2023-01-20T09:19:39;2.40;99.90
17425;DHT22;8830;50.978;5.058;2023-01-20T09:22:06;2.40;99.90
17425;DHT22;8830;50.978;5.058;2023-01-20T09:24:33;2.70;99.90
17425;DHT22;8830;50.978;5.058;2023-01-20T09:27:01;2.40;99.90
17425;DHT22;8830;50.978;5.058;2023-01-20T09:29:28;2.60;99.90
17425;DHT22;8830;50.978;5.058;2023-01-20T09:31:56;2.40;99.90
17425;DHT22;8830;50.978;5.058;2023-01-20T09:34:25;2.40;99.90
17425;DHT22;8830;50.978;5.058;2023-01-20T09:36:55;2.40;99.90
17425;DHT22;8830;50.978;5.058;2023-01-20T09:39:23;2.30;99.90
17425;DHT22;8830;50.978;5.058;2023-01-20T09:42:20;2.40;99.90
17425;DHT22;8830;50.978;5.058;2023-01-20T09:45:13;2.30;99.90
17425;DHT22;8830;50.978;5.058;2023-01-20T09:47:54;2.30;99.90
17425;DHT22;8830;50.978;5.058;2023-01-20T09:50:39;2.40;99.90
17425;DHT22;8830;50.978;5.058;2023-01-20T09:53:38;2.30;99.90
17425;DHT22;8830;50.978;5.058;2023-01-20T09:56:11;2.40;99.90
17425;DHT22;8830;50.978;5.058;2023-01-20T09:58:45;2.50;99.90
17425;DHT22;8830;50.978;5.058;2023-01-20T10:01:20;2.60;99.90
17425;DHT22;8830;50.978;5.058;2023-01-20T10:04:00;2.70;99.90
17425;DHT22;8830;50.978;5.058;2023-01-20T10:06:32;2.70;99.90
17425;DHT22;8830;50.978;5.058;2023-01-20T10:09:03;2.70;99.90
17425;DHT22;8830;50.978;5.058;2023-01-20T10:11:35;2.70;99.90
17425;DHT22;8830;50.978;5.058;2023-01-20T10:14:09;2.70;99.90
17425;DHT22;8830;50.978;5.058;2023-01-20T10:16:42;2.60;99.90
17425;DHT22;8830;50.978;5.058;2023-01-20T10:19:17;2.60;99.90
17425;DHT22;8830;50.978;5.058;2023-01-20T10:21:50;4.90;99.90
17425;DHT22;8830;50.978;5.058;2023-01-20T10:24:26;3.20;99.90
17425;DHT22;8830;50.978;5.058;2023-01-20T10:26:59;4.00;99.90
17425;DHT22;8830;50.978;5.058;2023-01-20T10:29:29;3.60;99.90
17425;DHT22;8830;50.978;5.058;2023-01-20T10:32:01;3.60;99.90
17425;DHT22;8830;50.978;5.058;2023-01-20T10:34:32;2.60;99.90
17425;DHT22;8830;50.978;5.058;2023-01-20T10:37:04;5.50;99.90
17425;DHT22;8830;50.978;5.058;2023-01-20T10:39:39;2.80;99.90
17425;DHT22;8830;50.978;5.058;2023-01-20T10:42:10;3.00;99.90
17425;DHT22;8830;50.978;5.058;2023-01-20T10:44:39;2.90;99.90
17425;DHT22;8830;50.978;5.058;2023-01-20T10:47:23;3.00;99.90
17425;DHT22;8830;50.978;5.058;2023-01-20T10:53:36;3.20;99.90
17425;DHT22;8830;50.978;5.058;2023-01-20T10:56:20;3.30;99.90
17425;DHT22;8830;50.978;5.058;2023-01-20T10:58:49;3.30;99.90
17425;DHT22;8830;50.978;5.058;2023-01-20T11:01:18;3.40;99.90
17425;DHT22;8830;50.978;5.058;2023-01-20T11:03:47;3.50;99.90
17425;DHT22;8830;50.978;5.058;2023-01-20T11:06:18;3.50;99.90
17425;DHT22;8830;50.978;5.058;2023-01-20T11:08:47;3.60;99.90
17425;DHT22;8830;50.978;5.058;2023-01-20T11:11:17;3.70;99.90
17425;DHT22;8830;50.978;5.058;2023-01-20T11:13:47;3.70;99.90
17425;DHT22;8830;50.978;5.058;2023-01-20T11:16:19;5.70;99.90
17425;DHT22;8830;50.978;5.058;2023-01-20T11:18:57;3.70;99.90
17425;DHT22;8830;50.978;5.058;2023-01-20T11:21:26;3.70;99.90
17425;DHT22;8830;50.978;5.058;2023-01-20T11:23:56;3.70;99.90
17425;DHT22;8830;50.978;5.058;2023-01-20T11:26:28;3.60;99.90
17425;DHT22;8830;50.978;5.058;2023-01-20T11:28:58;3.60;99.90
17425;DHT22;8830;50.978;5.058;2023-01-20T11:31:37;3.60;99.90
17425;DHT22;8830;50.978;5.058;2023-01-20T11:34:20;3.60;99.90
17425;DHT22;8830;50.978;5.058;2023-01-20T11:36:49;3.60;99.90
17425;DHT22;8830;50.978;5.058;2023-01-20T11:39:28;3.60;99.90
17425;DHT22;8830;50.978;5.058;2023-01-20T11:42:10;3.60;99.90
17425;DHT22;8830;50.978;5.058;2023-01-20T11:44:43;3.60;99.90
17425;DHT22;8830;50.978;5.058;2023-01-20T11:47:25;3.60;99.90
17425;DHT22;8830;50.978;5.058;2023-01-20T11:50:22;4.00;99.90
17425;DHT22;8830;50.978;5.058;2023-01-20T11:52:50;3.50;99.90
17425;DHT22;8830;50.978;5.058;2023-01-20T11:55:20;3.50;99.90
17425;DHT22;8830;50.978;5.058;2023-01-20T11:57:51;3.40;99.90
17425;DHT22;8830;50.978;5.058;2023-01-20T12:00:30;3.40;99.90
17425;DHT22;8830;50.978;5.058;2023-01-20T12:02:59;3.40;99.90
17425;DHT22;8830;50.978;5.058;2023-01-20T12:05:32;3.30;99.90
17425;DHT22;8830;50.978;5.058;2023-01-20T12:08:03;3.30;99.90
17425;DHT22;8830;50.978;5.058;2023-01-20T12:10:34;3.40;99.90
17425;DHT22;8830;50.978;5.058;2023-01-20T12:13:07;3.40;99.90
17425;DHT22;8830;50.978;5.058;2023-01-20T12:15:40;3.50;99.90
17425;DHT22;8830;50.978;5.058;2023-01-20T12:18:14;3.60;99.90
17425;DHT22;8830;50.978;5.058;2023-01-20T12:20:45;3.50;99.90
17425;DHT22;8830;50.978;5.058;2023-01-20T12:23:17;3.50;99.90
17425;DHT22;8830;50.978;5.058;2023-01-20T12:25:54;3.40;99.90
17425;DHT22;8830;50.978;5.058;2023-01-20T12:28:26;3.40;99.90
17425;DHT22;8830;50.978;5.058;2023-01-20T12:30:58;3.40;99.90
17425;DHT22;8830;50.978;5.058;2023-01-20T12:33:28;3.40;99.90
17425;DHT22;8830;50.978;5.058;2023-01-20T12:36:26;3.50;99.90
17425;DHT22;8830;50.978;5.058;2023-01-20T12:39:12;3.50;99.90
17425;DHT22;8830;50.978;5.058;2023-01-20T12:42:05;3.60;99.90
17425;DHT22;8830;50.978;5.058;2023-01-20T12:44:43;3.60;99.90
17425;DHT22;8830;50.978;5.058;2023-01-20T12:47:22;3.60;99.90
17425;DHT22;8830;50.978;5.058;2023-01-20T12:50:04;3.60;99.90
17425;DHT22;8830;50.978;5.058;2023-01-20T12:52:47;3.60;99.90
17425;DHT22;8830;50.978;5.058;2023-01-20T12:55:41;3.70;99.90
17425;DHT22;8830;50.978;5.058;2023-01-20T12:58:19;3.70;99.90
17425;DHT22;8830;50.978;5.058;2023-01-20T13:00:57;3.80;99.90
17425;DHT22;8830;50.978;5.058;2023-01-20T13:06:39;3.80;99.90
17425;DHT22;8830;50.978;5.058;2023-01-20T13:09:19;3.90;99.90
17425;DHT22;8830;50.978;5.058;2023-01-20T13:11:59;4.00;99.90
17425;DHT22;8830;50.978;5.058;2023-01-20T13:14:33;4.00;99.90
17425;DHT22;8830;50.978;5.058;2023-01-20T13:17:13;4.10;99.90
17425;DHT22;8830;50.978;5.058;2023-01-20T13:19:42;4.10;99.90
17425;DHT22;8830;50.978;5.058;2023-01-20T13:22:16;4.20;99.90
17425;DHT22;8830;50.978;5.058;2023-01-20T13:24:47;4.30;99.90
17425;DHT22;8830;50.978;5.058;2023-01-20T13:27:19;4.10;99.90
17425;DHT22;8830;50.978;5.058;2023-01-20T13:29:55;4.00;99.90
17425;DHT22;8830;50.978;5.058;2023-01-20T13:32:27;3.80;99.90
17425;DHT22;8830;50.978;5.058;2023-01-20T13:34:56;3.60;99.90
17425;DHT22;8830;50.978;5.058;2023-01-20T13:37:35;3.50;99.90
17425;DHT22;8830;50.978;5.058;2023-01-20T13:42:48;3.30;99.90
17425;DHT22;8830;50.978;5.058;2023-01-20T13:45:23;3.70;99.90
17425;DHT22;8830;50.978;5.058;2023-01-20T13:47:59;3.00;99.90
17425;DHT22;8830;50.978;5.058;2023-01-20T13:50:30;3.00;99.90
17425;DHT22;8830;50.978;5.058;2023-01-20T13:53:25;3.00;99.90
17425;DHT22;8830;50.978;5.058;2023-01-20T13:55:57;2.90;99.90
17425;DHT22;8830;50.978;5.058;2023-01-20T13:58:26;2.90;99.90
17425;DHT22;8830;50.978;5.058;2023-01-20T14:00:57;2.90;99.90
17425;DHT22;8830;50.978;5.058;2023-01-20T14:03:26;2.90;99.90
17425;DHT22;8830;50.978;5.058;2023-01-20T14:05:59;3.20;99.90
17425;DHT22;8830;50.978;5.058;2023-01-20T14:08:29;2.90;99.90
17425;DHT22;8830;50.978;5.058;2023-01-20T14:11:07;2.80;99.90
17425;DHT22;8830;50.978;5.058;2023-01-20T14:13:35;2.80;99.90
17425;DHT22;8830;50.978;5.058;2023-01-20T14:16:15;2.80;99.90
17425;DHT22;8830;50.978;5.058;2023-01-20T14:18:43;2.90;99.90
17425;DHT22;8830;50.978;5.058;2023-01-20T14:21:17;3.30;99.90
17425;DHT22;8830;50.978;5.058;2023-01-20T14:23:44;2.90;99.90
17425;DHT22;8830;50.978;5.058;2023-01-20T14:26:13;2.80;99.90
17425;DHT22;8830;50.978;5.058;2023-01-20T14:28:44;2.80;99.90
17425;DHT22;8830;50.978;5.058;2023-01-20T14:31:15;2.80;99.90
17425;DHT22;8830;50.978;5.058;2023-01-20T14:33:48;2.70;99.90
17425;DHT22;8830;50.978;5.058;2023-01-20T14:36:17;2.70;99.90
17425;DHT22;8830;50.978;5.058;2023-01-20T14:38:49;2.70;99.90
17425;DHT22;8830;50.978;5.058;2023-01-20T14:41:26;2.70;99.90
17425;DHT22;8830;50.978;5.058;2023-01-20T14:43:53;2.50;99.90
17425;DHT22;8830;50.978;5.058;2023-01-20T14:46:22;2.50;99.90
17425;DHT22;8830;50.978;5.058;2023-01-20T14:48:50;2.40;99.90
17425;DHT22;8830;50.978;5.058;2023-01-20T14:51:19;2.80;99.90
17425;DHT22;8830;50.978;5.058;2023-01-20T14:53:46;2.40;99.90
17425;DHT22;8830;50.978;5.058;2023-01-20T14:56:17;2.50;99.90
17425;DHT22;8830;50.978;5.058;2023-01-20T14:58:45;2.60;99.90
17425;DHT22;8830;50.978;5.058;2023-01-20T15:01:22;2.60;99.90
17425;DHT22;8830;50.978;5.058;2023-01-20T15:03:56;2.50;99.90
17425;DHT22;8830;50.978;5.058;2023-01-20T15:06:25;2.60;99.90
17425;DHT22;8830;50.978;5.058;2023-01-20T15:08:54;2.50;99.90
17425;DHT22;8830;50.978;5.058;2023-01-20T15:11:24;2.50;99.90
17425;DHT22;8830;50.978;5.058;2023-01-20T15:14:10;2.90;99.90
17425;DHT22;8830;50.978;5.058;2023-01-20T15:16:47;2.40;99.90
17425;DHT22;8830;50.978;5.058;2023-01-20T15:19:31;2.40;99.90
17425;DHT22;8830;50.978;5.058;2023-01-20T15:22:17;2.20;99.90
17425;DHT22;8830;50.978;5.058;2023-01-20T15:24:45;2.20;99.90
17425;DHT22;8830;50.978;5.058;2023-01-20T15:27:26;2.40;99.90
17425;DHT22;8830;50.978;5.058;2023-01-20T15:30:14;2.30;99.90
17425;DHT22;8830;50.978;5.058;2023-01-20T15:32:45;2.30;99.90
17425;DHT22;8830;50.978;5.058;2023-01-20T15:35:14;2.30;99.90
17425;DHT22;8830;50.978;5.058;2023-01-20T15:37:42;2.30;99.90
17425;DHT22;8830;50.978;5.058;2023-01-20T15:40:13;2.40;99.90
17425;DHT22;8830;50.978;5.058;2023-01-20T15:42:41;2.30;99.90
17425;DHT22;8830;50.978;5.058;2023-01-20T15:45:11;4.50;99.90
17425;DHT22;8830;50.978;5.058;2023-01-20T15:47:39;3.30;99.90
17425;DHT22;8830;50.978;5.058;2023-01-20T15:50:14;2.90;99.90
17425;DHT22;8830;50.978;5.058;2023-01-20T15:52:43;2.40;99.90
17425;DHT22;8830;50.978;5.058;2023-01-20T15:55:11;2.50;99.90
17425;DHT22;8830;50.978;5.058;2023-01-20T15:57:40;2.40;99.90
17425;DHT22;8830;50.978;5.058;2023-01-20T16:00:14;4.30;99.90
17425;DHT22;8830;50.978;5.058;2023-01-20T16:02:42;2.40;99.90
17425;DHT22;8830;50.978;5.058;2023-01-20T16:05:09;2.30;99.90
17425;DHT22;8830;50.978;5.058;2023-01-20T16:07:39;2.30;99.90
17425;DHT22;8830;50.978;5.058;2023-01-20T16:10:13;2.40;99.90
17425;DHT22;8830;50.978;5.058;2023-01-20T16:12:41;2.50;99.90
17425;DHT22;8830;50.978;5.058;2023-01-20T16:15:12;2.40;99.90
17425;DHT22;8830;50.978;5.058;2023-01-20T16:17:40;2.30;99.90
17425;DHT22;8830;50.978;5.058;2023-01-20T16:20:16;2.30;99.90
17425;DHT22;8830;50.978;5.058;2023-01-20T16:22:45;2.30;99.90
17425;DHT22;8830;50.978;5.058;2023-01-20T16:25:12;2.20;99.90
17425;DHT22;8830;50.978;5.058;2023-01-20T16:27:39;2.20;99.90
17425;DHT22;8830;50.978;5.058;2023-01-20T16:30:12;2.80;99.90
17425;DHT22;8830;50.978;5.058;2023-01-20T16:32:40;2.20;99.90
17425;DHT22;8830;50.978;5.058;2023-01-20T16:35:11;2.20;99.90
17425;DHT22;8830;50.978;5.058;2023-01-20T16:37:38;2.20;99.90